sensor_id;sensor_type;location;lat;lon;timestamp;pressure;altitude;pressure_sealevel;temperature;humidity
41044;BME280;51680;49.806;18.774;2023-04-02T00:05:40;96328.56;;;12.97;75.28
41044;BME280;51680;49.806;18.774;2023-04-02T00:08:51;96318.09;;;12.97;75.96
41044;BME280;51680;49.806;18.774;2023-04-02T00:11:56;96333.34;;;12.83;76.08
41044;BME280;51680;49.806;18.774;2023-04-02T00:15:00;96338.44;;;12.84;75.76
41044;BME280;51680;49.806;18.774;2023-04-02T00:18:02;96331.41;;;12.85;75.74
41044;BME280;51680;49.806;18.774;2023-04-02T00:21:09;96332.50;;;12.82;75.68
41044;BME280;51680;49.806;18.774;2023-04-02T00:24:16;96334.03;;;12.75;76.16
41044;BME280;51680;49.806;18.774;2023-04-02T00:27:20;96337.19;;;12.69;76.25
41044;BME280;51680;49.806;18.774;2023-04-02T00:30:22;96339.53;;;12.63;75.75
41044;BME280;51680;49.806;18.774;2023-04-02T00:33:27;96345.16;;;12.58;76.11
41044;BME280;51680;49.806;18.774;2023-04-02T00:36:30;96346.56;;;12.53;76.64
41044;BME280;51680;49.806;18.774;2023-04-02T00:39:37;96336.34;;;12.50;77.01
41044;BME280;51680;49.806;18.774;2023-04-02T00:42:42;96338.16;;;12.49;77.41
41044;BME280;51680;49.806;18.774;2023-04-02T00:45:46;96340.06;;;12.47;77.68
41044;BME280;51680;49.806;18.774;2023-04-02T00:48:55;96345.41;;;12.46;77.59
41044;BME280;51680;49.806;18.774;2023-04-02T00:52:19;96340.47;;;12.43;77.86
41044;BME280;51680;49.806;18.774;2023-04-02T00:55:24;96345.00;;;12.41;77.43
41044;BME280;51680;49.806;18.774;2023-04-02T00:58:32;96338.94;;;12.40;78.36
41044;BME280;51680;49.806;18.774;2023-04-02T01:01:35;96341.81;;;12.37;78.34
41044;BME280;51680;49.806;18.774;2023-04-02T01:04:51;96345.13;;;12.39;78.52
41044;BME280;51680;49.806;18.774;2023-04-02T01:08:00;96349.41;;;12.40;78.24
41044;BME280;51680;49.806;18.774;2023-04-02T01:11:12;96352.03;;;12.40;78.79
41044;BME280;51680;49.806;18.774;2023-04-02T01:14:32;96343.06;;;12.33;79.41
41044;BME280;51680;49.806;18.774;2023-04-02T01:17:50;96356.41;;;12.30;79.53
41044;BME280;51680;49.806;18.774;2023-04-02T01:21:10;96348.69;;;12.29;80.00
41044;BME280;51680;49.806;18.774;2023-04-02T01:24:14;96348.94;;;12.16;80.07
41044;BME280;51680;49.806;18.774;2023-04-02T01:27:19;96350.84;;;12.14;80.20
41044;BME280;51680;49.806;18.774;2023-04-02T01:30:25;96351.25;;;12.10;79.99
41044;BME280;51680;49.806;18.774;2023-04-02T01:33:29;96358.28;;;12.09;79.84
41044;BME280;51680;49.806;18.774;2023-04-02T01:36:59;96357.03;;;12.13;79.96
41044;BME280;51680;49.806;18.774;2023-04-02T01:40:15;96360.22;;;12.17;79.82
41044;BME280;51680;49.806;18.774;2023-04-02T01:43:24;96359.00;;;12.21;80.01
41044;BME280;51680;49.806;18.774;2023-04-02T01:46:32;96358.63;;;12.25;79.37
41044;BME280;51680;49.806;18.774;2023-04-02T01:49:35;96361.91;;;12.27;79.12
41044;BME280;51680;49.806;18.774;2023-04-02T01:52:38;96362.75;;;12.28;79.33
41044;BME280;51680;49.806;18.774;2023-04-02T01:55:44;96359.97;;;12.29;79.84
41044;BME280;51680;49.806;18.774;2023-04-02T01:58:48;96363.84;;;12.25;80.07
41044;BME280;51680;49.806;18.774;2023-04-02T02:01:57;96368.34;;;12.14;80.19
41044;BME280;51680;49.806;18.774;2023-04-02T02:05:01;96371.78;;;12.14;79.83
41044;BME280;51680;49.806;18.774;2023-04-02T02:08:04;96377.56;;;12.18;79.73
41044;BME280;51680;49.806;18.774;2023-04-02T02:11:12;96379.19;;;12.09;81.29
41044;BME280;51680;49.806;18.774;2023-04-02T02:14:16;96377.72;;;12.16;79.39
41044;BME280;51680;49.806;18.774;2023-04-02T02:17:24;96385.72;;;12.24;79.03
41044;BME280;51680;49.806;18.774;2023-04-02T02:20:28;96380.91;;;12.29;78.95
41044;BME280;51680;49.806;18.774;2023-04-02T02:23:31;96384.91;;;12.33;79.27
41044;BME280;51680;49.806;18.774;2023-04-02T02:26:34;96381.34;;;12.34;79.25
41044;BME280;51680;49.806;18.774;2023-04-02T02:29:38;96381.22;;;12.36;79.31
41044;BME280;51680;49.806;18.774;2023-04-02T02:32:46;96390.94;;;12.24;81.71
41044;BME280;51680;49.806;18.774;2023-04-02T02:35:53;96388.91;;;12.28;79.78
41044;BME280;51680;49.806;18.774;2023-04-02T02:39:07;96380.91;;;12.29;79.70
41044;BME280;51680;49.806;18.774;2023-04-02T02:42:23;96383.41;;;12.31;79.67
41044;BME280;51680;49.806;18.774;2023-04-02T02:45:46;96385.34;;;12.29;80.51
41044;BME280;51680;49.806;18.774;2023-04-02T02:48:50;96395.31;;;12.14;82.28
41044;BME280;51680;49.806;18.774;2023-04-02T02:51:57;96401.78;;;12.10;80.30
41044;BME280;51680;49.806;18.774;2023-04-02T02:55:10;96400.56;;;12.14;80.35
41044;BME280;51680;49.806;18.774;2023-04-02T02:58:28;96388.56;;;12.12;80.81
41044;BME280;51680;49.806;18.774;2023-04-02T03:01:49;96397.94;;;12.14;80.45
41044;BME280;51680;49.806;18.774;2023-04-02T03:04:54;96398.38;;;12.19;80.31
41044;BME280;51680;49.806;18.774;2023-04-02T03:08:02;96402.63;;;12.20;80.66
41044;BME280;51680;49.806;18.774;2023-04-02T03:11:09;96404.31;;;12.21;80.92
41044;BME280;51680;49.806;18.774;2023-04-02T03:14:19;96398.00;;;12.24;80.58
41044;BME280;51680;49.806;18.774;2023-04-02T03:17:28;96404.75;;;12.26;80.54
41044;BME280;51680;49.806;18.774;2023-04-02T03:20:35;96396.59;;;12.29;80.64
41044;BME280;51680;49.806;18.774;2023-04-02T03:23:41;96407.78;;;12.31;79.78
41044;BME280;51680;49.806;18.774;2023-04-02T03:26:48;96411.09;;;12.33;80.21
41044;BME280;51680;49.806;18.774;2023-04-02T03:30:00;96407.66;;;12.33;80.28
41044;BME280;51680;49.806;18.774;2023-04-02T03:33:13;96414.50;;;12.24;80.70
41044;BME280;51680;49.806;18.774;2023-04-02T03:36:22;96422.19;;;12.16;81.14
41044;BME280;51680;49.806;18.774;2023-04-02T03:39:32;96423.78;;;12.08;80.84
41044;BME280;51680;49.806;18.774;2023-04-02T03:42:39;96431.91;;;12.05;81.24
41044;BME280;51680;49.806;18.774;2023-04-02T03:45:48;96428.34;;;12.06;81.18
41044;BME280;51680;49.806;18.774;2023-04-02T03:48:53;96434.69;;;12.13;81.37
41044;BME280;51680;49.806;18.774;2023-04-02T03:52:00;96438.97;;;12.14;80.97
41044;BME280;51680;49.806;18.774;2023-04-02T03:55:11;96437.19;;;12.14;80.99
41044;BME280;51680;49.806;18.774;2023-04-02T03:58:20;96438.97;;;12.14;81.33
41044;BME280;51680;49.806;18.774;2023-04-02T04:01:28;96437.91;;;12.16;81.08
41044;BME280;51680;49.806;18.774;2023-04-02T04:04:33;96442.28;;;12.16;80.98
41044;BME280;51680;49.806;18.774;2023-04-02T04:07:42;96445.34;;;12.21;81.03
41044;BME280;51680;49.806;18.774;2023-04-02T04:10:49;96448.50;;;12.24;81.10
41044;BME280;51680;49.806;18.774;2023-04-02T04:13:55;96450.44;;;12.22;80.50
41044;BME280;51680;49.806;18.774;2023-04-02T04:17:01;96453.63;;;12.26;80.48
41044;BME280;51680;49.806;18.774;2023-04-02T04:20:14;96458.72;;;12.27;80.46
41044;BME280;51680;49.806;18.774;2023-04-02T04:23:27;96463.97;;;12.27;80.21
41044;BME280;51680;49.806;18.774;2023-04-02T04:26:40;96463.28;;;12.25;80.21
41044;BME280;51680;49.806;18.774;2023-04-02T04:29:47;96467.53;;;12.26;80.73
41044;BME280;51680;49.806;18.774;2023-04-02T04:32:55;96475.66;;;12.23;80.70
41044;BME280;51680;49.806;18.774;2023-04-02T04:36:01;96473.44;;;12.19;80.58
41044;BME280;51680;49.806;18.774;2023-04-02T04:39:12;96475.88;;;12.20;80.67
41044;BME280;51680;49.806;18.774;2023-04-02T04:42:21;96477.56;;;12.21;81.09
41044;BME280;51680;49.806;18.774;2023-04-02T04:45:37;96478.00;;;12.26;80.82
41044;BME280;51680;49.806;18.774;2023-04-02T04:48:48;96477.03;;;12.27;80.94
41044;BME280;51680;49.806;18.774;2023-04-02T04:51:55;96477.88;;;12.28;80.96
41044;BME280;51680;49.806;18.774;2023-04-02T04:55:01;96483.69;;;12.31;80.69
41044;BME280;51680;49.806;18.774;2023-04-02T04:58:13;96489.16;;;12.28;80.88
41044;BME280;51680;49.806;18.774;2023-04-02T05:01:23;96494.41;;;12.28;80.83
41044;BME280;51680;49.806;18.774;2023-04-02T05:04:31;96496.81;;;12.20;81.22
41044;BME280;51680;49.806;18.774;2023-04-02T05:07:42;96496.56;;;12.23;81.45
41044;BME280;51680;49.806;18.774;2023-04-02T05:10:50;96496.31;;;12.26;81.39
41044;BME280;51680;49.806;18.774;2023-04-02T05:13:56;96491.09;;;12.26;81.57
41044;BME280;51680;49.806;18.774;2023-04-02T05:17:04;96492.50;;;12.30;81.14
41044;BME280;51680;49.806;18.774;2023-04-02T05:20:13;96491.41;;;12.33;80.96
41044;BME280;51680;49.806;18.774;2023-04-02T05:23:25;96493.38;;;12.40;80.78
41044;BME280;51680;49.806;18.774;2023-04-02T05:26:36;96495.56;;;12.45;81.34
41044;BME280;51680;49.806;18.774;2023-04-02T05:29:42;96492.84;;;12.46;81.20
41044;BME280;51680;49.806;18.774;2023-04-02T05:32:52;96499.19;;;12.53;80.59
41044;BME280;51680;49.806;18.774;2023-04-02T05:35:58;96503.50;;;12.54;81.44
41044;BME280;51680;49.806;18.774;2023-04-02T05:39:07;96502.78;;;12.52;81.52
41044;BME280;51680;49.806;18.774;2023-04-02T05:42:22;96506.09;;;12.54;81.13
41044;BME280;51680;49.806;18.774;2023-04-02T05:45:32;96509.41;;;12.56;81.07
41044;BME280;51680;49.806;18.774;2023-04-02T05:48:39;96506.91;;;12.55;80.83
41044;BME280;51680;49.806;18.774;2023-04-02T05:51:46;96512.72;;;12.58;81.46
41044;BME280;51680;49.806;18.774;2023-04-02T05:54:53;96512.72;;;12.58;80.81
41044;BME280;51680;49.806;18.774;2023-04-02T05:58:01;96514.38;;;12.59;80.75
41044;BME280;51680;49.806;18.774;2023-04-02T06:01:15;96521.81;;;12.54;80.81
41044;BME280;51680;49.806;18.774;2023-04-02T06:04:23;96522.06;;;12.51;81.01
41044;BME280;51680;49.806;18.774;2023-04-02T06:07:30;96521.63;;;12.46;81.22
41044;BME280;51680;49.806;18.774;2023-04-02T06:10:40;96527.63;;;12.37;81.40
41044;BME280;51680;49.806;18.774;2023-04-02T06:13:45;96527.59;;;12.28;82.01
41044;BME280;51680;49.806;18.774;2023-04-02T06:16:48;96535.25;;;12.20;81.98
41044;BME280;51680;49.806;18.774;2023-04-02T06:19:50;96539.53;;;12.21;81.76
41044;BME280;51680;49.806;18.774;2023-04-02T06:22:56;96541.13;;;12.12;82.44
41044;BME280;51680;49.806;18.774;2023-04-02T06:26:02;96549.50;;;12.06;82.41
41044;BME280;51680;49.806;18.774;2023-04-02T06:29:13;96547.69;;;12.07;82.33
41044;BME280;51680;49.806;18.774;2023-04-02T06:32:21;96551.72;;;11.90;85.02
41044;BME280;51680;49.806;18.774;2023-04-02T06:35:25;96552.88;;;11.97;82.99
41044;BME280;51680;49.806;18.774;2023-04-02T06:38:34;96547.66;;;11.97;82.36
41044;BME280;51680;49.806;18.774;2023-04-02T06:41:36;96557.91;;;11.89;82.38
41044;BME280;51680;49.806;18.774;2023-04-02T06:44:59;96574.28;;;11.60;81.84
41044;BME280;51680;49.806;18.774;2023-04-02T06:48:19;96600.03;;;11.22;81.86
41044;BME280;51680;49.806;18.774;2023-04-02T06:51:30;96610.38;;;10.79;80.42
41044;BME280;51680;49.806;18.774;2023-04-02T06:54:36;96628.97;;;10.42;80.46
41044;BME280;51680;49.806;18.774;2023-04-02T06:57:41;96638.25;;;10.11;80.48
41044;BME280;51680;49.806;18.774;2023-04-02T07:00:46;96636.59;;;9.87;80.75
41044;BME280;51680;49.806;18.774;2023-04-02T07:03:55;96659.31;;;9.61;80.91
41044;BME280;51680;49.806;18.774;2023-04-02T07:07:03;96659.41;;;9.36;80.58
41044;BME280;51680;49.806;18.774;2023-04-02T07:10:10;96675.59;;;9.16;80.75
41044;BME280;51680;49.806;18.774;2023-04-02T07:13:14;96682.50;;;9.05;81.23
41044;BME280;51680;49.806;18.774;2023-04-02T07:16:20;96692.72;;;8.95;81.12
41044;BME280;51680;49.806;18.774;2023-04-02T07:19:23;96701.88;;;8.88;81.09
41044;BME280;51680;49.806;18.774;2023-04-02T07:22:29;96706.75;;;8.80;81.21
41044;BME280;51680;49.806;18.774;2023-04-02T07:25:34;96716.63;;;8.75;81.35
41044;BME280;51680;49.806;18.774;2023-04-02T07:28:35;96723.53;;;8.76;81.66
41044;BME280;51680;49.806;18.774;2023-04-02T07:31:38;96726.94;;;8.77;81.82
41044;BME280;51680;49.806;18.774;2023-04-02T07:34:41;96738.63;;;8.71;81.69
41044;BME280;51680;49.806;18.774;2023-04-02T07:37:42;96748.09;;;8.72;81.74
41044;BME280;51680;49.806;18.774;2023-04-02T07:40:44;96753.19;;;8.74;81.47
41044;BME280;51680;49.806;18.774;2023-04-02T07:43:47;96759.31;;;8.73;81.61
41044;BME280;51680;49.806;18.774;2023-04-02T07:46:50;96779.50;;;8.69;81.86
41044;BME280;51680;49.806;18.774;2023-04-02T07:49:51;96768.75;;;8.61;81.86
41044;BME280;51680;49.806;18.774;2023-04-02T07:52:53;96795.09;;;8.57;82.11
41044;BME280;51680;49.806;18.774;2023-04-02T07:55:56;96797.19;;;8.64;81.97
41044;BME280;51680;49.806;18.774;2023-04-02T07:58:57;96804.88;;;8.66;82.19
41044;BME280;51680;49.806;18.774;2023-04-02T08:02:00;96802.38;;;8.64;81.41
41044;BME280;51680;49.806;18.774;2023-04-02T08:05:04;96822.97;;;8.55;81.53
41044;BME280;51680;49.806;18.774;2023-04-02T08:08:06;96831.06;;;8.50;81.38
41044;BME280;51680;49.806;18.774;2023-04-02T08:11:08;96828.97;;;8.43;81.71
41044;BME280;51680;49.806;18.774;2023-04-02T08:14:10;96842.06;;;8.41;81.44
41044;BME280;51680;49.806;18.774;2023-04-02T08:17:13;96847.16;;;8.43;81.25
41044;BME280;51680;49.806;18.774;2023-04-02T08:20:17;96848.00;;;8.43;81.78
41044;BME280;51680;49.806;18.774;2023-04-02T08:23:19;96856.03;;;8.53;81.40
41044;BME280;51680;49.806;18.774;2023-04-02T08:26:21;96860.19;;;8.55;80.74
41044;BME280;51680;49.806;18.774;2023-04-02T08:29:22;96864.78;;;8.52;80.79
41044;BME280;51680;49.806;18.774;2023-04-02T08:32:26;96870.81;;;8.52;80.66
41044;BME280;51680;49.806;18.774;2023-04-02T08:35:28;96885.94;;;8.33;82.71
41044;BME280;51680;49.806;18.774;2023-04-02T08:38:30;96891.31;;;8.30;80.88
41044;BME280;51680;49.806;18.774;2023-04-02T08:41:36;96892.97;;;8.31;80.63
41044;BME280;51680;49.806;18.774;2023-04-02T08:44:44;96911.19;;;8.31;80.51
41044;BME280;51680;49.806;18.774;2023-04-02T08:47:55;96908.50;;;8.33;80.22
41044;BME280;51680;49.806;18.774;2023-04-02T08:50:59;96917.13;;;8.33;80.12
41044;BME280;51680;49.806;18.774;2023-04-02T08:54:13;96926.22;;;8.26;80.11
41044;BME280;51680;49.806;18.774;2023-04-02T08:57:18;96926.13;;;8.00;81.00
41044;BME280;51680;49.806;18.774;2023-04-02T09:00:27;96940.16;;;7.97;79.99
41044;BME280;51680;49.806;18.774;2023-04-02T09:03:37;96945.91;;;8.02;79.59
41044;BME280;51680;49.806;18.774;2023-04-02T09:06:41;96951.88;;;8.04;79.27
41044;BME280;51680;49.806;18.774;2023-04-02T09:09:46;96953.88;;;7.99;79.52
41044;BME280;51680;49.806;18.774;2023-04-02T09:12:51;96963.16;;;7.89;79.20
41044;BME280;51680;49.806;18.774;2023-04-02T09:15:55;96969.91;;;7.78;81.39
41044;BME280;51680;49.806;18.774;2023-04-02T09:18:59;96971.69;;;7.77;79.10
41044;BME280;51680;49.806;18.774;2023-04-02T09:22:05;96978.94;;;7.72;78.94
41044;BME280;51680;49.806;18.774;2023-04-02T09:25:12;96989.88;;;7.77;79.31
41044;BME280;51680;49.806;18.774;2023-04-02T09:28:14;96993.75;;;7.70;78.68
41044;BME280;51680;49.806;18.774;2023-04-02T09:31:19;97005.66;;;7.74;78.68
41044;BME280;51680;49.806;18.774;2023-04-02T09:34:27;97006.41;;;7.76;79.02
41044;BME280;51680;49.806;18.774;2023-04-02T09:37:30;97005.06;;;7.69;78.49
41044;BME280;51680;49.806;18.774;2023-04-02T09:40:41;97027.72;;;7.67;78.69
41044;BME280;51680;49.806;18.774;2023-04-02T09:43:44;97029.56;;;7.65;78.21
41044;BME280;51680;49.806;18.774;2023-04-02T09:46:47;97035.16;;;7.73;78.14
41044;BME280;51680;49.806;18.774;2023-04-02T09:49:51;97026.91;;;7.81;78.02
41044;BME280;51680;49.806;18.774;2023-04-02T09:52:53;97044.56;;;7.90;78.24
41044;BME280;51680;49.806;18.774;2023-04-02T09:56:12;97048.44;;;7.97;77.93
41044;BME280;51680;49.806;18.774;2023-04-02T09:59:16;97047.25;;;8.02;76.87
41044;BME280;51680;49.806;18.774;2023-04-02T10:02:23;97046.88;;;8.08;76.87
41044;BME280;51680;49.806;18.774;2023-04-02T10:05:30;97051.00;;;8.12;76.99
41044;BME280;51680;49.806;18.774;2023-04-02T10:08:33;97058.19;;;8.23;76.83
41044;BME280;51680;49.806;18.774;2023-04-02T10:11:35;97057.00;;;8.28;77.09
41044;BME280;51680;49.806;18.774;2023-04-02T10:14:39;97055.13;;;8.30;76.79
41044;BME280;51680;49.806;18.774;2023-04-02T10:17:42;97055.59;;;8.23;77.15
41044;BME280;51680;49.806;18.774;2023-04-02T10:20:50;97066.50;;;8.14;77.70
41044;BME280;51680;49.806;18.774;2023-04-02T10:23:53;97064.06;;;8.11;77.36
41044;BME280;51680;49.806;18.774;2023-04-02T10:27:02;97067.59;;;8.10;78.25
41044;BME280;51680;49.806;18.774;2023-04-02T10:30:15;97078.47;;;8.16;78.01
41044;BME280;51680;49.806;18.774;2023-04-02T10:33:24;97078.38;;;8.18;78.00
41044;BME280;51680;49.806;18.774;2023-04-02T10:36:40;97078.31;;;8.19;77.69
41044;BME280;51680;49.806;18.774;2023-04-02T10:39:51;97092.66;;;8.11;77.52
41044;BME280;51680;49.806;18.774;2023-04-02T10:43:03;97085.75;;;7.96;78.27
41044;BME280;51680;49.806;18.774;2023-04-02T10:46:14;97086.78;;;7.93;78.56
41044;BME280;51680;49.806;18.774;2023-04-02T10:49:24;97092.91;;;7.92;78.11
41044;BME280;51680;49.806;18.774;2023-04-02T10:52:33;97100.53;;;7.95;79.09
41044;BME280;51680;49.806;18.774;2023-04-02T10:55:42;97100.25;;;8.00;78.47
41044;BME280;51680;49.806;18.774;2023-04-02T10:58:51;97102.84;;;8.00;79.10
41044;BME280;51680;49.806;18.774;2023-04-02T11:01:56;97108.50;;;7.92;78.76
41044;BME280;51680;49.806;18.774;2023-04-02T11:05:10;97112.41;;;7.85;79.24
41044;BME280;51680;49.806;18.774;2023-04-02T11:08:19;97112.91;;;7.76;79.54
41044;BME280;51680;49.806;18.774;2023-04-02T11:11:25;97116.97;;;7.66;79.50
41044;BME280;51680;49.806;18.774;2023-04-02T11:14:30;97124.75;;;7.66;79.58
41044;BME280;51680;49.806;18.774;2023-04-02T11:17:32;97129.69;;;7.55;79.52
41044;BME280;51680;49.806;18.774;2023-04-02T11:21:05;97129.91;;;7.52;80.59
41044;BME280;51680;49.806;18.774;2023-04-02T11:24:22;97139.69;;;7.47;80.35
41044;BME280;51680;49.806;18.774;2023-04-02T11:27:26;97142.63;;;7.41;80.24
41044;BME280;51680;49.806;18.774;2023-04-02T11:30:29;97146.41;;;7.36;80.12
41044;BME280;51680;49.806;18.774;2023-04-02T11:33:38;97144.06;;;7.31;80.94
41044;BME280;51680;49.806;18.774;2023-04-02T11:37:07;97152.75;;;7.30;82.12
41044;BME280;51680;49.806;18.774;2023-04-02T11:40:49;97159.13;;;7.40;81.67
41044;BME280;51680;49.806;18.774;2023-04-02T11:43:59;97163.56;;;7.38;80.59
41044;BME280;51680;49.806;18.774;2023-04-02T11:47:13;97165.31;;;7.38;80.97
41044;BME280;51680;49.806;18.774;2023-04-02T11:50:27;97168.59;;;7.41;81.29
41044;BME280;51680;49.806;18.774;2023-04-02T11:53:32;97168.78;;;7.38;80.73
41044;BME280;51680;49.806;18.774;2023-04-02T11:56:42;97174.88;;;7.37;80.98
41044;BME280;51680;49.806;18.774;2023-04-02T11:59:57;97180.97;;;7.36;80.67
41044;BME280;51680;49.806;18.774;2023-04-02T12:03:28;97181.84;;;7.37;81.30
41044;BME280;51680;49.806;18.774;2023-04-02T12:06:43;97185.34;;;7.36;80.53
41044;BME280;51680;49.806;18.774;2023-04-02T12:09:50;97188.03;;;7.34;80.63
41044;BME280;51680;49.806;18.774;2023-04-02T12:12:54;97187.03;;;7.37;80.98
41044;BME280;51680;49.806;18.774;2023-04-02T12:15:56;97188.03;;;7.34;80.47
41044;BME280;51680;49.806;18.774;2023-04-02T12:18:59;97196.41;;;7.39;80.93
41044;BME280;51680;49.806;18.774;2023-04-02T12:22:01;97185.28;;;7.37;80.56
41044;BME280;51680;49.806;18.774;2023-04-02T12:25:06;97187.94;;;7.36;80.54
41044;BME280;51680;49.806;18.774;2023-04-02T12:28:21;97197.63;;;7.32;80.73
41044;BME280;51680;49.806;18.774;2023-04-02T12:31:23;97196.97;;;7.29;80.76
41044;BME280;51680;49.806;18.774;2023-04-02T12:34:27;97200.91;;;7.20;80.74
41044;BME280;51680;49.806;18.774;2023-04-02T12:37:29;97199.84;;;7.24;80.70
41044;BME280;51680;49.806;18.774;2023-04-02T12:40:31;97202.09;;;7.30;80.67
41044;BME280;51680;49.806;18.774;2023-04-02T12:43:35;97209.97;;;7.44;80.91
41044;BME280;51680;49.806;18.774;2023-04-02T12:46:39;97214.00;;;7.50;80.28
41044;BME280;51680;49.806;18.774;2023-04-02T12:49:42;97207.47;;;7.58;80.33
41044;BME280;51680;49.806;18.774;2023-04-02T12:52:46;97207.97;;;7.65;79.64
41044;BME280;51680;49.806;18.774;2023-04-02T12:55:49;97215.50;;;7.69;79.40
41044;BME280;51680;49.806;18.774;2023-04-02T12:58:54;97215.13;;;7.75;79.30
41044;BME280;51680;49.806;18.774;2023-04-02T13:01:57;97220.03;;;7.81;79.38
41044;BME280;51680;49.806;18.774;2023-04-02T13:05:00;97218.94;;;7.85;79.55
41044;BME280;51680;49.806;18.774;2023-04-02T13:08:03;97218.94;;;7.85;79.52
41044;BME280;51680;49.806;18.774;2023-04-02T13:11:06;97224.44;;;7.79;79.48
41044;BME280;51680;49.806;18.774;2023-04-02T13:14:16;97224.56;;;7.62;79.61
41044;BME280;51680;49.806;18.774;2023-04-02T13:17:39;97220.44;;;7.43;79.94
41044;BME280;51680;49.806;18.774;2023-04-02T13:20:42;97228.06;;;7.30;79.82
41044;BME280;51680;49.806;18.774;2023-04-02T13:23:55;97225.00;;;7.22;79.67
41044;BME280;51680;49.806;18.774;2023-04-02T13:26:58;97231.81;;;7.25;80.29
41044;BME280;51680;49.806;18.774;2023-04-02T13:30:07;97240.28;;;7.28;80.08
41044;BME280;51680;49.806;18.774;2023-04-02T13:33:09;97242.63;;;7.33;80.15
41044;BME280;51680;49.806;18.774;2023-04-02T13:36:12;97243.28;;;7.36;80.19
41044;BME280;51680;49.806;18.774;2023-04-02T13:39:14;97238.59;;;7.43;80.09
41044;BME280;51680;49.806;18.774;2023-04-02T13:42:16;97247.00;;;7.48;79.71
41044;BME280;51680;49.806;18.774;2023-04-02T13:45:24;97265.09;;;7.49;79.85
41044;BME280;51680;49.806;18.774;2023-04-02T13:48:26;97271.44;;;7.44;79.44
41044;BME280;51680;49.806;18.774;2023-04-02T13:51:33;97264.31;;;7.32;79.17
41044;BME280;51680;49.806;18.774;2023-04-02T13:54:40;97269.00;;;7.25;79.80
41044;BME280;51680;49.806;18.774;2023-04-02T13:57:44;97279.84;;;7.16;79.43
41044;BME280;51680;49.806;18.774;2023-04-02T14:00:47;97281.44;;;7.19;79.29
41044;BME280;51680;49.806;18.774;2023-04-02T14:03:50;97283.44;;;7.14;79.36
41044;BME280;51680;49.806;18.774;2023-04-02T14:07:23;97287.19;;;7.08;79.87
41044;BME280;51680;49.806;18.774;2023-04-02T14:10:42;97288.28;;;7.04;80.06
41044;BME280;51680;49.806;18.774;2023-04-02T14:14:06;97289.97;;;7.05;80.39
41044;BME280;51680;49.806;18.774;2023-04-02T14:17:19;97296.16;;;7.03;80.21
41044;BME280;51680;49.806;18.774;2023-04-02T14:20:34;97311.06;;;6.99;80.32
41044;BME280;51680;49.806;18.774;2023-04-02T14:23:48;97315.25;;;7.02;79.88
41044;BME280;51680;49.806;18.774;2023-04-02T14:27:17;97310.41;;;7.11;80.16
41044;BME280;51680;49.806;18.774;2023-04-02T14:30:26;97315.38;;;7.16;79.76
41044;BME280;51680;49.806;18.774;2023-04-02T14:33:41;97313.59;;;7.16;79.59
41044;BME280;51680;49.806;18.774;2023-04-02T14:36:53;97317.72;;;7.20;80.19
41044;BME280;51680;49.806;18.774;2023-04-02T14:40:07;97312.53;;;7.20;79.53
41044;BME280;51680;49.806;18.774;2023-04-02T14:43:15;97325.81;;;7.14;79.23
41044;BME280;51680;49.806;18.774;2023-04-02T14:46:24;97316.38;;;7.13;79.81
41044;BME280;51680;49.806;18.774;2023-04-02T14:49:34;97326.66;;;7.15;79.94
41044;BME280;51680;49.806;18.774;2023-04-02T14:52:41;97323.84;;;7.19;79.98
41044;BME280;51680;49.806;18.774;2023-04-02T14:55:46;97334.22;;;7.19;79.30
41044;BME280;51680;49.806;18.774;2023-04-02T14:58:51;97330.25;;;7.12;78.93
41044;BME280;51680;49.806;18.774;2023-04-02T15:01:57;97332.84;;;7.12;79.34
41044;BME280;51680;49.806;18.774;2023-04-02T15:05:10;97337.00;;;6.99;78.74
41044;BME280;51680;49.806;18.774;2023-04-02T15:08:18;97339.28;;;6.88;79.28
41044;BME280;51680;49.806;18.774;2023-04-02T15:11:25;97349.81;;;6.85;79.09
41044;BME280;51680;49.806;18.774;2023-04-02T15:14:32;97350.63;;;6.86;79.46
41044;BME280;51680;49.806;18.774;2023-04-02T15:17:35;97348.28;;;6.81;79.77
41044;BME280;51680;49.806;18.774;2023-04-02T15:20:45;97352.88;;;6.76;79.19
41044;BME280;51680;49.806;18.774;2023-04-02T15:23:55;97371.47;;;6.67;79.20
41044;BME280;51680;49.806;18.774;2023-04-02T15:27:13;97371.53;;;6.66;79.69
41044;BME280;51680;49.806;18.774;2023-04-02T15:30:23;97381.84;;;6.67;79.42
41044;BME280;51680;49.806;18.774;2023-04-02T15:33:51;97386.25;;;6.65;80.40
41044;BME280;51680;49.806;18.774;2023-04-02T15:37:06;97390.69;;;6.63;80.19
41044;BME280;51680;49.806;18.774;2023-04-02T15:40:39;97394.81;;;6.67;79.98
41044;BME280;51680;49.806;18.774;2023-04-02T15:43:51;97392.22;;;6.67;80.00
41044;BME280;51680;49.806;18.774;2023-04-02T15:47:02;97398.94;;;6.71;79.51
41044;BME280;51680;49.806;18.774;2023-04-02T15:50:18;97400.63;;;6.72;80.05
41044;BME280;51680;49.806;18.774;2023-04-02T15:53:43;97400.75;;;6.69;79.75
41044;BME280;51680;49.806;18.774;2023-04-02T15:57:08;97407.91;;;6.64;79.40
41044;BME280;51680;49.806;18.774;2023-04-02T16:00:23;97413.78;;;6.68;79.97
41044;BME280;51680;49.806;18.774;2023-04-02T16:03:46;97414.94;;;6.62;79.99
41044;BME280;51680;49.806;18.774;2023-04-02T16:07:08;97424.91;;;6.53;79.62
41044;BME280;51680;49.806;18.774;2023-04-02T16:10:18;97425.75;;;6.53;80.00
41044;BME280;51680;49.806;18.774;2023-04-02T16:13:28;97429.09;;;6.55;79.70
41044;BME280;51680;49.806;18.774;2023-04-02T16:16:31;97436.56;;;6.44;80.39
41044;BME280;51680;49.806;18.774;2023-04-02T16:19:37;97440.97;;;6.42;79.66
41044;BME280;51680;49.806;18.774;2023-04-02T16:22:43;97433.63;;;6.33;80.44
41044;BME280;51680;49.806;18.774;2023-04-02T16:25:51;97444.75;;;6.35;80.77
41044;BME280;51680;49.806;18.774;2023-04-02T16:29:05;97454.50;;;6.30;80.75
41044;BME280;51680;49.806;18.774;2023-04-02T16:32:15;97463.88;;;6.33;80.67
41044;BME280;51680;49.806;18.774;2023-04-02T16:35:25;97465.03;;;6.27;80.62